createdAt,value
2019-01-17T00:02:00.863Z,70.53
2019-01-17T00:04:48.387Z,70.47
2019-01-17T00:10:11.669Z,70.28
2019-01-17T00:12:59.191Z,70.19
2019-01-17T00:18:45.035Z,70.02
2019-01-17T00:21:32.634Z,70.02
2019-01-17T00:24:20.177Z,69.99
2019-01-17T00:27:07.701Z,70.01
2019-01-17T00:32:30.692Z,70.02
2019-01-17T00:35:18.205Z,70.00
2019-01-17T00:38:05.873Z,70.00
2019-01-17T00:40:53.394Z,70.02
2019-01-17T00:43:41.037Z,70.02
2019-01-17T00:46:40.577Z,70.08
2019-01-17T00:49:28.210Z,70.23
2019-01-17T00:55:04.827Z,70.41
2019-01-17T00:57:52.347Z,70.45
2019-01-17T01:00:39.952Z,70.51
2019-01-17T01:03:27.469Z,70.50
2019-01-17T01:06:15.341Z,70.45
2019-01-17T01:09:02.990Z,70.44
2019-01-17T01:14:46.387Z,70.58
2019-01-17T01:17:33.907Z,70.60
2019-01-17T01:20:21.545Z,70.59
2019-01-17T01:23:09.124Z,70.64
2019-01-17T01:25:57.002Z,70.69
2019-01-17T01:28:44.523Z,70.69
2019-01-17T01:31:32.395Z,70.73
2019-01-17T01:37:09.007Z,70.53
2019-01-17T01:39:56.529Z,70.45
2019-01-17T01:42:44.249Z,70.44
2019-01-17T01:45:31.836Z,70.46
2019-01-17T01:48:19.421Z,70.49
2019-01-17T01:51:06.945Z,70.48
2019-01-17T01:53:35.407Z,70.49
2019-01-17T01:56:03.801Z,70.37
2019-01-17T01:58:32.195Z,70.33
2019-01-17T02:01:00.690Z,70.25
2019-01-17T02:03:29.083Z,70.23
2019-01-17T02:05:57.480Z,70.25
2019-01-17T02:08:25.895Z,70.12
2019-01-17T02:10:54.359Z,69.92
2019-01-17T02:13:22.815Z,69.95
2019-01-17T02:15:51.422Z,70.04
2019-01-17T02:18:19.807Z,70.13
2019-01-17T02:20:48.273Z,70.19
2019-01-17T02:23:16.757Z,70.14
2019-01-17T02:25:45.149Z,70.07
2019-01-17T02:28:13.546Z,70.01
2019-01-17T02:33:16.008Z,69.94
2019-01-17T02:35:44.621Z,69.84
2019-01-17T02:38:13.023Z,69.83
2019-01-17T02:40:41.416Z,69.88
2019-01-17T02:43:09.905Z,69.94
2019-01-17T02:45:38.303Z,70.04
2019-01-17T02:48:06.839Z,70.01
2019-01-17T02:50:35.332Z,70.05
2019-01-17T02:53:03.853Z,70.11
2019-01-17T02:55:32.252Z,70.19
2019-01-17T02:58:00.807Z,70.19
2019-01-17T03:00:29.198Z,70.30
2019-01-17T03:02:57.592Z,70.35
2019-01-17T03:05:26.129Z,70.38
2019-01-17T03:07:54.514Z,70.36
2019-01-17T03:10:22.909Z,70.29
2019-01-17T03:12:51.406Z,70.24
2019-01-17T03:15:19.802Z,70.18
2019-01-17T03:17:48.269Z,70.08
2019-01-17T03:20:16.754Z,70.05
2019-01-17T03:22:45.143Z,70.04
2019-01-17T03:25:13.601Z,70.02
2019-01-17T03:30:55.616Z,69.89
2019-01-17T03:33:24.193Z,69.84
2019-01-17T03:35:52.585Z,69.81
2019-01-17T03:38:20.983Z,69.81
2019-01-17T03:40:49.410Z,69.72
2019-01-17T03:43:17.795Z,69.70
2019-01-17T03:45:46.259Z,69.62
2019-01-17T03:48:14.754Z,69.38
2019-01-17T03:50:43.146Z,69.21
2019-01-17T03:53:11.610Z,69.18
2019-01-17T03:58:15.435Z,69.30
2019-01-17T04:00:43.829Z,69.34
2019-01-17T04:03:12.222Z,69.38
2019-01-17T04:05:40.643Z,69.41
2019-01-17T04:08:09.184Z,69.44
2019-01-17T04:10:37.565Z,69.47
2019-01-17T04:13:05.990Z,69.45
2019-01-17T04:15:34.453Z,69.50
2019-01-17T04:18:02.847Z,69.54
2019-01-17T04:20:31.267Z,69.53
2019-01-17T04:22:59.653Z,69.50
2019-01-17T04:25:28.045Z,69.48
2019-01-17T04:27:56.547Z,69.43
2019-01-17T04:30:24.935Z,69.40
2019-01-17T04:32:53.322Z,69.38
2019-01-17T04:37:55.387Z,69.35
2019-01-17T04:40:23.810Z,69.34
2019-01-17T04:42:52.207Z,69.38
2019-01-17T04:45:20.605Z,69.41
2019-01-17T04:50:22.836Z,69.48
2019-01-17T04:53:03.660Z,69.44
2019-01-17T04:55:32.075Z,69.40
2019-01-17T04:58:00.456Z,69.40
2019-01-17T05:00:28.865Z,69.39
2019-01-17T05:02:57.263Z,69.38
2019-01-17T05:05:25.652Z,69.37
2019-01-17T05:10:28.421Z,69.38
2019-01-17T05:15:30.638Z,69.28
2019-01-17T05:17:59.059Z,69.31
2019-01-17T05:20:46.781Z,69.28
2019-01-17T05:25:49.057Z,69.34
2019-01-17T05:28:17.497Z,69.32
2019-01-17T05:30:45.873Z,69.20
2019-01-17T05:33:14.256Z,69.20
2019-01-17T05:38:30.106Z,69.23
2019-01-17T05:40:58.501Z,69.22
2019-01-17T05:43:26.985Z,69.23
2019-01-17T05:45:55.395Z,69.33
2019-01-17T05:48:23.797Z,69.36
2019-01-17T05:51:11.552Z,69.41
2019-01-17T05:57:12.227Z,69.56
2019-01-17T05:59:40.618Z,69.64
2019-01-17T06:02:09.014Z,69.71
2019-01-17T06:04:37.443Z,69.78
2019-01-17T06:07:05.850Z,69.89
2019-01-17T06:09:34.239Z,69.94
2019-01-17T06:12:02.672Z,69.94
2019-01-17T06:14:31.053Z,69.96
2019-01-17T06:16:59.448Z,69.93
2019-01-17T06:22:01.447Z,69.94
2019-01-17T06:27:03.997Z,70.05
2019-01-17T06:29:32.396Z,70.09
2019-01-17T06:34:34.379Z,70.29
2019-01-17T06:39:36.764Z,70.44
2019-01-17T06:42:24.370Z,70.55
2019-01-17T06:44:52.770Z,70.64
2019-01-17T06:47:21.223Z,70.68
2019-01-17T06:52:23.286Z,70.73
2019-01-17T06:54:51.748Z,70.71
2019-01-17T06:57:20.136Z,70.70
2019-01-17T06:59:48.578Z,70.76
2019-01-17T07:02:17.158Z,70.90
2019-01-17T07:04:45.552Z,70.98
2019-01-17T07:07:13.948Z,71.02
2019-01-17T07:09:42.365Z,71.09
2019-01-17T07:12:10.754Z,71.12
2019-01-17T07:14:39.146Z,71.17
2019-01-17T07:17:07.730Z,71.19
2019-01-17T07:19:36.121Z,71.16
2019-01-17T07:22:04.608Z,71.16
2019-01-17T07:27:07.203Z,71.15
2019-01-17T07:29:35.648Z,71.13
2019-01-17T07:43:14.476Z,70.78
2019-01-17T07:48:17.430Z,70.60
2019-01-17T07:50:45.862Z,70.50
2019-01-17T07:53:14.258Z,70.37
2019-01-17T07:55:47.580Z,70.25
2019-01-17T07:58:52.726Z,70.18
2019-01-17T08:01:21.132Z,70.10
2019-01-17T08:03:49.528Z,69.97
2019-01-17T08:06:37.266Z,69.90
2019-01-17T08:09:46.175Z,69.86
2019-01-17T08:14:49.913Z,69.73
2019-01-17T08:17:18.348Z,69.64
2019-01-17T08:19:46.742Z,69.51
2019-01-17T08:22:15.134Z,69.36
2019-01-17T08:24:43.556Z,69.25
2019-01-17T08:27:31.144Z,69.18
2019-01-17T08:29:59.559Z,69.08
2019-01-17T08:32:27.954Z,68.95
2019-01-17T08:34:56.348Z,68.87
2019-01-17T08:39:58.682Z,68.64
2019-01-17T08:42:27.117Z,68.53
2019-01-17T08:44:55.516Z,68.36
2019-01-17T08:47:23.907Z,68.28
2019-01-17T08:49:52.333Z,68.14
2019-01-17T08:52:20.729Z,68.03
2019-01-17T08:54:49.125Z,67.94
2019-01-17T08:57:17.579Z,67.66
2019-01-17T08:59:45.979Z,67.52
2019-01-17T09:02:14.381Z,67.43
2019-01-17T09:04:42.813Z,67.26
2019-01-17T09:07:11.209Z,67.09
2019-01-17T09:09:39.601Z,66.92
2019-01-17T09:14:41.700Z,66.71
2019-01-17T09:17:10.092Z,66.52
2019-01-17T09:22:12.891Z,66.49
2019-01-17T09:24:42.176Z,66.40
2019-01-17T09:27:11.453Z,66.24
2019-01-17T09:29:39.846Z,66.16
2019-01-17T09:32:27.586Z,65.99
2019-01-17T09:34:55.980Z,65.95
2019-01-17T09:37:24.374Z,65.90
2019-01-17T09:39:52.806Z,65.79
2019-01-17T09:42:21.269Z,65.59
2019-01-17T09:44:49.666Z,65.47
2019-01-17T09:50:52.060Z,65.10
2019-01-17T09:53:20.628Z,64.94
2019-01-17T09:55:49.016Z,65.02
2019-01-17T09:58:17.404Z,65.07
2019-01-17T10:00:45.904Z,65.03
2019-01-17T10:03:14.298Z,64.92
2019-01-17T10:05:42.692Z,64.83
2019-01-17T10:08:11.192Z,64.67
2019-01-17T10:10:39.608Z,64.58
2019-01-17T10:13:08.004Z,64.48
2019-01-17T10:16:16.419Z,64.41
2019-01-17T10:19:24.788Z,64.31
2019-01-17T10:22:31.812Z,64.16
2019-01-17T10:25:40.184Z,63.95
2019-01-17T10:28:47.190Z,63.73
2019-01-17T10:31:55.532Z,63.50
2019-01-17T10:35:02.579Z,63.39
2019-01-17T10:38:09.562Z,63.15
2019-01-17T10:41:16.660Z,62.89
2019-01-17T10:44:25.020Z,62.82
2019-01-17T10:47:33.434Z,62.75
2019-01-17T10:50:41.823Z,62.56
2019-01-17T10:53:50.250Z,62.49
2019-01-17T10:56:57.243Z,62.31
2019-01-17T11:00:05.666Z,62.17
2019-01-17T11:03:12.686Z,62.03
2019-01-17T11:06:19.706Z,61.72
2019-01-17T11:09:28.020Z,61.52
2019-01-17T11:12:17.354Z,61.29
2019-01-17T11:15:24.346Z,60.83
2019-01-17T11:18:32.767Z,60.48
2019-01-17T11:21:39.754Z,60.42
2019-01-17T11:24:47.108Z,60.43
2019-01-17T11:27:55.542Z,60.42
2019-01-17T11:31:02.560Z,60.36
2019-01-17T11:34:10.886Z,60.29
2019-01-17T11:37:18.051Z,60.02
2019-01-17T11:40:26.370Z,59.93
2019-01-17T11:43:34.724Z,59.87
2019-01-17T11:46:41.710Z,59.91
2019-01-17T11:49:48.901Z,59.98
2019-01-17T11:52:55.880Z,59.80
2019-01-17T11:56:04.214Z,59.67
2019-01-17T11:59:12.522Z,59.70
2019-01-17T12:02:19.648Z,59.78
2019-01-17T12:05:00.383Z,60.15
2019-01-17T12:10:02.773Z,60.44
2019-01-17T12:12:31.258Z,60.59
2019-01-17T12:20:42.099Z,60.47
2019-01-17T12:23:10.570Z,60.12
2019-01-17T12:25:38.962Z,59.78
2019-01-17T12:28:07.348Z,59.43
2019-01-17T12:30:35.796Z,59.32
2019-01-17T12:33:04.192Z,59.03
2019-01-17T12:35:32.573Z,58.94
2019-01-17T12:38:01.004Z,58.80
2019-01-17T12:40:29.404Z,58.64
2019-01-17T12:42:57.807Z,58.55
2019-01-17T12:50:35.074Z,58.16
2019-01-17T12:53:22.758Z,57.99
2019-01-17T12:56:10.580Z,57.86
2019-01-17T13:01:12.790Z,57.76
2019-01-17T13:06:28.716Z,57.33
2019-01-17T13:08:57.109Z,57.13
2019-01-17T13:11:25.503Z,56.87
2019-01-17T13:16:27.529Z,56.72
2019-01-17T13:18:55.922Z,56.71
2019-01-17T13:23:58.745Z,56.34
2019-01-17T13:26:46.503Z,56.09
2019-01-17T13:29:14.889Z,55.66
2019-01-17T13:31:43.286Z,55.41
2019-01-17T13:34:11.727Z,55.30
2019-01-17T13:36:40.709Z,55.15
2019-01-17T13:39:10.233Z,55.04
2019-01-17T13:41:38.669Z,54.97
2019-01-17T13:44:07.227Z,54.84
2019-01-17T13:46:55.050Z,54.48
2019-01-17T13:49:42.638Z,54.22
2019-01-17T13:54:45.300Z,54.01
2019-01-17T13:57:13.738Z,53.79
2019-01-17T13:59:42.135Z,53.80
2019-01-17T14:02:29.916Z,53.68
2019-01-17T14:04:58.311Z,53.51
2019-01-17T14:07:26.732Z,53.38
2019-01-17T14:12:28.807Z,53.50
2019-01-17T14:14:57.231Z,54.45
2019-01-17T14:17:25.621Z,54.83
2019-01-17T14:19:54.008Z,54.92
2019-01-17T14:27:58.166Z,55.37
2019-01-17T14:31:06.471Z,56.07
2019-01-17T14:33:34.898Z,56.55
2019-01-17T14:36:03.299Z,57.06
2019-01-17T14:38:31.695Z,57.42
2019-01-17T14:43:34.059Z,58.02
2019-01-17T14:46:02.488Z,58.27
2019-01-17T14:48:30.875Z,58.53
2019-01-17T14:50:59.268Z,58.69
2019-01-17T14:53:27.701Z,58.91
2019-01-17T14:55:56.089Z,59.19
2019-01-17T14:58:24.557Z,59.48
2019-01-17T15:00:52.972Z,59.73
2019-01-17T15:03:21.368Z,60.01
2019-01-17T15:05:49.757Z,60.33
2019-01-17T15:08:18.263Z,60.55
2019-01-17T15:10:46.716Z,60.76
2019-01-17T15:13:15.107Z,60.84
2019-01-17T15:16:02.852Z,60.60
2019-01-17T15:18:31.242Z,60.50
2019-01-17T15:20:59.629Z,60.51
2019-01-17T15:23:47.374Z,60.55
2019-01-17T15:26:15.766Z,60.55
2019-01-17T15:28:44.160Z,60.56
2019-01-17T15:33:46.510Z,60.65
2019-01-17T15:38:49.306Z,60.86
2019-01-17T15:41:17.761Z,60.78
2019-01-17T15:43:46.156Z,60.81
2019-01-17T15:46:14.553Z,60.70
2019-01-17T15:51:17.571Z,60.57
2019-01-17T15:56:19.902Z,60.66
2019-01-17T15:58:48.289Z,60.75
2019-01-17T16:03:51.076Z,61.10
2019-01-17T16:06:19.488Z,61.28
2019-01-17T16:08:47.888Z,61.51
2019-01-17T16:11:16.288Z,61.73
2019-01-17T16:13:44.700Z,61.95
2019-01-17T16:16:13.091Z,62.23
2019-01-17T16:18:41.493Z,62.42
2019-01-17T16:21:09.934Z,62.63
2019-01-17T16:23:38.325Z,62.75
2019-01-17T16:26:06.721Z,62.71
2019-01-17T16:28:35.145Z,62.71
2019-01-17T16:31:03.609Z,62.79
2019-01-17T16:33:32.007Z,62.88
2019-01-17T16:36:00.425Z,62.89
2019-01-17T16:38:28.815Z,62.78
2019-01-17T16:40:57.214Z,62.83
2019-01-17T16:45:59.385Z,62.82
2019-01-17T16:51:01.802Z,62.88
2019-01-17T17:01:32.260Z,63.11
2019-01-17T17:06:34.529Z,63.49
2019-01-17T17:12:01.327Z,64.00
2019-01-17T17:14:29.721Z,64.18
2019-01-17T17:16:58.123Z,64.37
2019-01-17T17:19:26.549Z,64.57
2019-01-17T17:21:54.947Z,64.85
2019-01-17T17:24:23.347Z,65.06
2019-01-17T17:29:25.992Z,65.42
2019-01-17T17:32:13.741Z,65.64
2019-01-17T17:34:42.137Z,65.81
2019-01-17T17:37:10.531Z,66.04
2019-01-17T17:42:12.836Z,66.18
2019-01-17T17:44:41.239Z,66.18
2019-01-17T17:52:18.879Z,66.25
2019-01-17T17:54:47.336Z,66.35
2019-01-17T17:57:15.719Z,66.33
2019-01-17T17:59:44.171Z,66.29
2019-01-17T18:02:31.768Z,66.26
2019-01-17T18:05:00.220Z,66.21
2019-01-17T18:07:28.573Z,66.08
2019-01-17T18:09:56.969Z,65.98
2019-01-17T18:12:37.898Z,65.90
2019-01-17T18:15:46.210Z,65.78
2019-01-17T18:18:14.736Z,65.53
2019-01-17T18:20:43.126Z,65.09
2019-01-17T18:23:30.778Z,64.93
2019-01-17T18:25:59.172Z,64.60
2019-01-17T18:28:27.566Z,64.32
2019-01-17T18:30:55.978Z,64.02
2019-01-17T18:33:24.440Z,63.54
2019-01-17T18:36:12.193Z,63.24
2019-01-17T18:38:40.665Z,62.84
2019-01-17T18:41:09.064Z,62.38
2019-01-17T18:46:11.771Z,61.72
2019-01-17T18:51:33.414Z,61.28
2019-01-17T18:54:01.841Z,61.23
2019-01-17T18:56:30.239Z,61.17
2019-01-17T18:58:58.622Z,61.19
2019-01-17T19:04:01.007Z,61.06
2019-01-17T19:06:48.777Z,61.04
2019-01-17T19:09:17.171Z,60.95
2019-01-17T19:11:45.566Z,60.98
2019-01-17T19:14:13.971Z,60.79
2019-01-17T19:16:42.372Z,60.75
2019-01-17T19:19:10.767Z,60.73
2019-01-17T19:24:12.766Z,60.74
2019-01-17T19:26:41.162Z,60.71
2019-01-17T19:29:09.586Z,60.75
2019-01-17T19:31:38.045Z,60.76
2019-01-17T19:34:06.438Z,60.69
2019-01-17T19:36:34.881Z,60.73
2019-01-17T19:45:09.309Z,60.79
2019-01-17T19:47:37.708Z,60.81
2019-01-17T19:50:46.046Z,60.82
2019-01-17T19:53:14.446Z,60.86
2019-01-17T19:55:43.249Z,60.90
2019-01-17T19:58:11.669Z,60.83
2019-01-17T20:00:59.404Z,60.80
2019-01-17T20:03:27.839Z,60.78
2019-01-17T20:05:56.228Z,60.69
2019-01-17T20:08:24.624Z,60.60
2019-01-17T20:10:53.185Z,60.43
2019-01-17T20:13:21.545Z,60.21
2019-01-17T20:15:50.017Z,60.20
2019-01-17T20:18:18.444Z,60.12
2019-01-17T20:20:46.870Z,60.15
2019-01-17T20:23:15.245Z,59.97
2019-01-17T20:28:18.067Z,60.00
2019-01-17T20:33:20.544Z,59.87
2019-01-17T20:35:48.975Z,59.95
2019-01-17T20:38:17.435Z,59.73
2019-01-17T20:40:45.836Z,59.68
2019-01-17T20:46:07.320Z,59.57
2019-01-17T20:51:09.990Z,59.66
2019-01-17T20:53:38.422Z,59.72
2019-01-17T20:56:26.015Z,59.79
2019-01-17T20:58:54.476Z,59.92
2019-01-17T21:02:02.890Z,59.98
2019-01-17T21:04:31.284Z,60.12
2019-01-17T21:07:05.508Z,60.29
2019-01-17T21:09:29.868Z,60.33
2019-01-17T21:11:58.302Z,60.44
2019-01-17T21:14:26.780Z,60.58
2019-01-17T21:17:14.550Z,60.70
2019-01-17T21:19:42.941Z,60.87
2019-01-17T21:22:11.341Z,61.02
2019-01-17T21:24:39.781Z,61.13
2019-01-17T21:27:08.175Z,61.25
2019-01-17T21:30:16.588Z,61.40
2019-01-17T21:33:24.978Z,61.43
2019-01-17T21:36:12.682Z,61.42
2019-01-17T21:38:41.064Z,61.39
2019-01-17T21:41:09.528Z,61.42
2019-01-17T21:43:37.986Z,61.46
2019-01-17T21:46:06.382Z,61.43
2019-01-17T21:48:34.793Z,61.36
2019-01-17T21:53:37.548Z,61.25
2019-01-17T21:56:05.997Z,61.20
2019-01-17T21:58:56.011Z,61.18
2019-01-17T22:01:42.970Z,61.12
2019-01-17T22:04:30.584Z,61.05
2019-01-17T22:09:33.533Z,60.69
2019-01-17T22:14:35.882Z,60.40
2019-01-17T22:17:23.552Z,60.35
2019-01-17T22:20:04.496Z,60.34
2019-01-17T22:22:32.929Z,60.28
2019-01-17T22:25:02.707Z,59.97
2019-01-17T22:27:31.440Z,59.72
2019-01-17T22:29:59.890Z,59.68
2019-01-17T22:32:28.282Z,59.58
2019-01-17T22:34:56.680Z,59.58
2019-01-17T22:37:25.163Z,59.43
2019-01-17T22:39:53.554Z,59.35
2019-01-17T22:42:21.950Z,59.26
2019-01-17T22:47:29.356Z,59.26
2019-01-17T22:49:57.744Z,59.32
2019-01-17T22:52:26.133Z,59.31
2019-01-17T22:57:28.894Z,59.14
2019-01-17T22:59:57.340Z,59.12
2019-01-17T23:02:25.796Z,59.18
2019-01-17T23:04:54.180Z,59.17
2019-01-17T23:09:56.457Z,59.06
2019-01-17T23:14:59.020Z,59.18
2019-01-17T23:17:27.428Z,59.20
2019-01-17T23:19:55.821Z,59.14
2019-01-17T23:22:36.769Z,59.13
2019-01-17T23:25:45.079Z,59.20
2019-01-17T23:30:47.658Z,59.15
2019-01-17T23:33:16.054Z,59.19
2019-01-17T23:35:44.450Z,59.05
2019-01-17T23:38:12.844Z,59.08
2019-01-17T23:41:00.456Z,59.11
2019-01-17T23:43:28.846Z,59.09
2019-01-17T23:46:16.490Z,59.09
2019-01-17T23:48:44.892Z,59.06
2019-01-17T23:51:13.284Z,59.10
2019-01-17T23:53:41.719Z,59.06
2019-01-17T23:56:10.150Z,59.10
2019-01-17T23:58:38.500Z,59.14
